sensor_id;sensor_type;location;lat;lon;timestamp;P1;durP1;ratioP1;P2;durP2;ratioP2
63444;SDS011;49573;47.682;9.170;2023-05-07T00:01:14;4.87;;;3.43;;
63444;SDS011;49573;47.682;9.170;2023-05-07T00:04:00;5.15;;;3.45;;
63444;SDS011;49573;47.682;9.170;2023-05-07T00:06:46;4.83;;;2.83;;
63444;SDS011;49573;47.682;9.170;2023-05-07T00:09:32;5.43;;;3.23;;
63444;SDS011;49573;47.682;9.170;2023-05-07T00:12:18;4.90;;;3.40;;
63444;SDS011;49573;47.682;9.170;2023-05-07T00:15:05;5.68;;;3.30;;
63444;SDS011;49573;47.682;9.170;2023-05-07T00:17:54;4.38;;;3.20;;
63444;SDS011;49573;47.682;9.170;2023-05-07T00:20:40;6.50;;;3.30;;
63444;SDS011;49573;47.682;9.170;2023-05-07T00:23:26;4.80;;;3.07;;
63444;SDS011;49573;47.682;9.170;2023-05-07T00:26:12;5.33;;;3.43;;
63444;SDS011;49573;47.682;9.170;2023-05-07T00:28:58;3.88;;;3.35;;
63444;SDS011;49573;47.682;9.170;2023-05-07T00:31:44;6.47;;;3.58;;
63444;SDS011;49573;47.682;9.170;2023-05-07T00:34:32;6.32;;;3.53;;
63444;SDS011;49573;47.682;9.170;2023-05-07T00:37:18;5.60;;;3.45;;
63444;SDS011;49573;47.682;9.170;2023-05-07T00:40:04;4.53;;;3.30;;
63444;SDS011;49573;47.682;9.170;2023-05-07T00:42:52;6.55;;;3.30;;
63444;SDS011;49573;47.682;9.170;2023-05-07T00:45:42;5.70;;;3.25;;
63444;SDS011;49573;47.682;9.170;2023-05-07T00:48:28;5.47;;;3.33;;
63444;SDS011;49573;47.682;9.170;2023-05-07T00:51:15;5.15;;;3.30;;
63444;SDS011;49573;47.682;9.170;2023-05-07T00:54:02;4.35;;;3.00;;
63444;SDS011;49573;47.682;9.170;2023-05-07T00:56:48;5.38;;;3.42;;
63444;SDS011;49573;47.682;9.170;2023-05-07T00:59:34;4.07;;;3.35;;
63444;SDS011;49573;47.682;9.170;2023-05-07T01:02:21;5.43;;;3.20;;
63444;SDS011;49573;47.682;9.170;2023-05-07T01:05:07;4.20;;;3.30;;
63444;SDS011;49573;47.682;9.170;2023-05-07T01:07:57;4.43;;;3.15;;
63444;SDS011;49573;47.682;9.170;2023-05-07T01:10:44;5.60;;;3.53;;
63444;SDS011;49573;47.682;9.170;2023-05-07T01:13:31;5.55;;;3.60;;
63444;SDS011;49573;47.682;9.170;2023-05-07T01:16:18;4.82;;;3.75;;
63444;SDS011;49573;47.682;9.170;2023-05-07T01:19:04;4.80;;;3.25;;
63444;SDS011;49573;47.682;9.170;2023-05-07T01:21:50;6.55;;;3.40;;
63444;SDS011;49573;47.682;9.170;2023-05-07T01:24:38;5.10;;;3.55;;
63444;SDS011;49573;47.682;9.170;2023-05-07T01:27:24;6.55;;;3.28;;
63444;SDS011;49573;47.682;9.170;2023-05-07T01:30:10;4.23;;;3.40;;
63444;SDS011;49573;47.682;9.170;2023-05-07T01:32:57;5.13;;;3.40;;
63444;SDS011;49573;47.682;9.170;2023-05-07T01:35:47;4.72;;;3.47;;
63444;SDS011;49573;47.682;9.170;2023-05-07T01:38:36;4.50;;;3.65;;
63444;SDS011;49573;47.682;9.170;2023-05-07T01:41:26;4.72;;;3.70;;
63444;SDS011;49573;47.682;9.170;2023-05-07T01:44:12;6.00;;;4.30;;
63444;SDS011;49573;47.682;9.170;2023-05-07T01:46:59;5.93;;;3.85;;
63444;SDS011;49573;47.682;9.170;2023-05-07T01:52:32;7.47;;;3.80;;
63444;SDS011;49573;47.682;9.170;2023-05-07T01:58:06;5.18;;;3.85;;
63444;SDS011;49573;47.682;9.170;2023-05-07T02:00:52;9.52;;;4.60;;
63444;SDS011;49573;47.682;9.170;2023-05-07T02:03:38;5.20;;;3.58;;
63444;SDS011;49573;47.682;9.170;2023-05-07T02:06:24;4.40;;;3.50;;
63444;SDS011;49573;47.682;9.170;2023-05-07T02:09:10;5.10;;;3.95;;
63444;SDS011;49573;47.682;9.170;2023-05-07T02:11:56;5.87;;;3.70;;
63444;SDS011;49573;47.682;9.170;2023-05-07T02:14:44;6.57;;;3.92;;
63444;SDS011;49573;47.682;9.170;2023-05-07T02:17:30;5.32;;;3.70;;
63444;SDS011;49573;47.682;9.170;2023-05-07T02:20:17;7.22;;;3.75;;
63444;SDS011;49573;47.682;9.170;2023-05-07T02:23:03;6.53;;;3.70;;
63444;SDS011;49573;47.682;9.170;2023-05-07T02:25:49;4.95;;;3.47;;
63444;SDS011;49573;47.682;9.170;2023-05-07T02:28:36;6.50;;;3.60;;
63444;SDS011;49573;47.682;9.170;2023-05-07T02:31:24;5.35;;;3.72;;
63444;SDS011;49573;47.682;9.170;2023-05-07T02:34:10;4.60;;;3.50;;
63444;SDS011;49573;47.682;9.170;2023-05-07T02:36:56;5.90;;;4.03;;
63444;SDS011;49573;47.682;9.170;2023-05-07T02:39:42;4.20;;;3.33;;
63444;SDS011;49573;47.682;9.170;2023-05-07T02:42:28;5.78;;;3.70;;
63444;SDS011;49573;47.682;9.170;2023-05-07T02:45:14;4.57;;;3.45;;
63444;SDS011;49573;47.682;9.170;2023-05-07T02:48:01;5.87;;;4.00;;
63444;SDS011;49573;47.682;9.170;2023-05-07T02:50:47;5.15;;;4.00;;
63444;SDS011;49573;47.682;9.170;2023-05-07T02:53:33;6.20;;;3.85;;
63444;SDS011;49573;47.682;9.170;2023-05-07T02:56:19;6.22;;;4.10;;
63444;SDS011;49573;47.682;9.170;2023-05-07T02:59:06;6.05;;;3.97;;
63444;SDS011;49573;47.682;9.170;2023-05-07T03:01:52;5.88;;;3.65;;
63444;SDS011;49573;47.682;9.170;2023-05-07T03:04:39;4.40;;;3.50;;
63444;SDS011;49573;47.682;9.170;2023-05-07T03:07:26;6.97;;;3.83;;
63444;SDS011;49573;47.682;9.170;2023-05-07T03:10:12;5.15;;;3.83;;
63444;SDS011;49573;47.682;9.170;2023-05-07T03:12:58;5.05;;;3.67;;
63444;SDS011;49573;47.682;9.170;2023-05-07T03:15:45;7.05;;;4.07;;
63444;SDS011;49573;47.682;9.170;2023-05-07T03:18:31;8.48;;;4.07;;
63444;SDS011;49573;47.682;9.170;2023-05-07T03:21:18;7.25;;;4.00;;
63444;SDS011;49573;47.682;9.170;2023-05-07T03:24:05;4.38;;;3.78;;
63444;SDS011;49573;47.682;9.170;2023-05-07T03:26:51;4.10;;;3.33;;
63444;SDS011;49573;47.682;9.170;2023-05-07T03:29:37;4.82;;;3.80;;
63444;SDS011;49573;47.682;9.170;2023-05-07T03:32:23;4.85;;;3.53;;
63444;SDS011;49573;47.682;9.170;2023-05-07T03:35:09;6.38;;;3.88;;
63444;SDS011;49573;47.682;9.170;2023-05-07T03:37:57;6.38;;;3.80;;
63444;SDS011;49573;47.682;9.170;2023-05-07T03:40:43;5.35;;;3.70;;
63444;SDS011;49573;47.682;9.170;2023-05-07T03:43:29;6.65;;;4.57;;
63444;SDS011;49573;47.682;9.170;2023-05-07T03:46:15;4.63;;;3.72;;
63444;SDS011;49573;47.682;9.170;2023-05-07T03:49:01;5.18;;;3.97;;
63444;SDS011;49573;47.682;9.170;2023-05-07T03:51:47;4.88;;;3.70;;
63444;SDS011;49573;47.682;9.170;2023-05-07T03:54:34;5.50;;;4.03;;
63444;SDS011;49573;47.682;9.170;2023-05-07T03:57:20;4.78;;;3.67;;
63444;SDS011;49573;47.682;9.170;2023-05-07T04:00:07;7.07;;;3.60;;
63444;SDS011;49573;47.682;9.170;2023-05-07T04:02:53;5.20;;;3.58;;
63444;SDS011;49573;47.682;9.170;2023-05-07T04:05:39;5.63;;;3.95;;
63444;SDS011;49573;47.682;9.170;2023-05-07T04:08:25;7.03;;;4.30;;
63444;SDS011;49573;47.682;9.170;2023-05-07T04:11:13;5.93;;;3.58;;
63444;SDS011;49573;47.682;9.170;2023-05-07T04:13:59;4.78;;;3.80;;
63444;SDS011;49573;47.682;9.170;2023-05-07T04:16:45;4.45;;;3.67;;
63444;SDS011;49573;47.682;9.170;2023-05-07T04:19:32;4.97;;;4.03;;
63444;SDS011;49573;47.682;9.170;2023-05-07T04:22:18;5.25;;;3.50;;
63444;SDS011;49573;47.682;9.170;2023-05-07T04:25:05;5.75;;;3.55;;
63444;SDS011;49573;47.682;9.170;2023-05-07T04:27:53;5.55;;;3.70;;
63444;SDS011;49573;47.682;9.170;2023-05-07T04:30:39;5.18;;;3.90;;
63444;SDS011;49573;47.682;9.170;2023-05-07T04:33:26;4.35;;;3.45;;
63444;SDS011;49573;47.682;9.170;2023-05-07T04:36:12;5.72;;;3.95;;
63444;SDS011;49573;47.682;9.170;2023-05-07T04:38:58;5.38;;;3.90;;
63444;SDS011;49573;47.682;9.170;2023-05-07T04:41:44;7.53;;;3.80;;
63444;SDS011;49573;47.682;9.170;2023-05-07T04:44:32;6.00;;;3.80;;
63444;SDS011;49573;47.682;9.170;2023-05-07T04:47:18;6.97;;;3.67;;
63444;SDS011;49573;47.682;9.170;2023-05-07T04:50:04;8.98;;;3.78;;
63444;SDS011;49573;47.682;9.170;2023-05-07T04:52:51;5.60;;;3.92;;
63444;SDS011;49573;47.682;9.170;2023-05-07T04:55:37;6.50;;;3.90;;
63444;SDS011;49573;47.682;9.170;2023-05-07T04:58:24;7.15;;;4.32;;
63444;SDS011;49573;47.682;9.170;2023-05-07T05:01:11;6.72;;;4.68;;
63444;SDS011;49573;47.682;9.170;2023-05-07T05:03:58;6.25;;;4.00;;
63444;SDS011;49573;47.682;9.170;2023-05-07T05:06:45;5.18;;;4.18;;
63444;SDS011;49573;47.682;9.170;2023-05-07T05:09:31;4.75;;;3.67;;
63444;SDS011;49573;47.682;9.170;2023-05-07T05:12:18;7.35;;;4.30;;
63444;SDS011;49573;47.682;9.170;2023-05-07T05:15:05;5.85;;;3.95;;
63444;SDS011;49573;47.682;9.170;2023-05-07T05:20:39;7.22;;;4.60;;
63444;SDS011;49573;47.682;9.170;2023-05-07T05:23:25;7.22;;;4.60;;
63444;SDS011;49573;47.682;9.170;2023-05-07T05:26:12;6.82;;;5.10;;
63444;SDS011;49573;47.682;9.170;2023-05-07T05:28:58;8.43;;;4.90;;
63444;SDS011;49573;47.682;9.170;2023-05-07T05:31:44;7.63;;;4.97;;
63444;SDS011;49573;47.682;9.170;2023-05-07T05:34:31;7.03;;;5.15;;
63444;SDS011;49573;47.682;9.170;2023-05-07T05:37:19;6.55;;;5.22;;
63444;SDS011;49573;47.682;9.170;2023-05-07T05:40:06;7.45;;;5.03;;
63444;SDS011;49573;47.682;9.170;2023-05-07T05:42:53;7.47;;;5.65;;
63444;SDS011;49573;47.682;9.170;2023-05-07T05:45:39;8.77;;;6.03;;
63444;SDS011;49573;47.682;9.170;2023-05-07T05:48:26;8.00;;;5.47;;
63444;SDS011;49573;47.682;9.170;2023-05-07T05:51:12;9.10;;;5.82;;
63444;SDS011;49573;47.682;9.170;2023-05-07T05:54:00;9.27;;;6.45;;
63444;SDS011;49573;47.682;9.170;2023-05-07T05:56:46;9.88;;;5.85;;
63444;SDS011;49573;47.682;9.170;2023-05-07T05:59:33;7.25;;;5.88;;
63444;SDS011;49573;47.682;9.170;2023-05-07T06:02:19;8.63;;;5.68;;
63444;SDS011;49573;47.682;9.170;2023-05-07T06:05:06;7.45;;;5.78;;
63444;SDS011;49573;47.682;9.170;2023-05-07T06:07:53;8.13;;;5.65;;
63444;SDS011;49573;47.682;9.170;2023-05-07T06:10:40;7.47;;;5.55;;
63444;SDS011;49573;47.682;9.170;2023-05-07T06:13:27;6.50;;;5.60;;
63444;SDS011;49573;47.682;9.170;2023-05-07T06:16:13;7.55;;;4.97;;
63444;SDS011;49573;47.682;9.170;2023-05-07T06:21:46;10.35;;;5.88;;
63444;SDS011;49573;47.682;9.170;2023-05-07T06:24:33;6.95;;;5.85;;
63444;SDS011;49573;47.682;9.170;2023-05-07T06:27:21;6.80;;;5.97;;
63444;SDS011;49573;47.682;9.170;2023-05-07T06:30:07;8.70;;;5.47;;
63444;SDS011;49573;47.682;9.170;2023-05-07T06:32:54;9.38;;;5.93;;
63444;SDS011;49573;47.682;9.170;2023-05-07T06:35:40;8.80;;;6.68;;
63444;SDS011;49573;47.682;9.170;2023-05-07T06:38:26;8.93;;;5.60;;
63444;SDS011;49573;47.682;9.170;2023-05-07T06:41:13;8.95;;;5.63;;
63444;SDS011;49573;47.682;9.170;2023-05-07T06:44:00;6.55;;;5.53;;
63444;SDS011;49573;47.682;9.170;2023-05-07T06:46:47;8.63;;;5.85;;
63444;SDS011;49573;47.682;9.170;2023-05-07T06:49:33;8.55;;;6.18;;
63444;SDS011;49573;47.682;9.170;2023-05-07T06:52:20;6.68;;;5.82;;
63444;SDS011;49573;47.682;9.170;2023-05-07T06:55:06;8.90;;;6.05;;
63444;SDS011;49573;47.682;9.170;2023-05-07T07:00:40;12.90;;;5.80;;
63444;SDS011;49573;47.682;9.170;2023-05-07T07:03:27;8.32;;;5.40;;
63444;SDS011;49573;47.682;9.170;2023-05-07T07:06:13;10.38;;;5.95;;
63444;SDS011;49573;47.682;9.170;2023-05-07T07:09:00;9.55;;;5.70;;
63444;SDS011;49573;47.682;9.170;2023-05-07T07:11:46;5.70;;;5.13;;
63444;SDS011;49573;47.682;9.170;2023-05-07T07:14:32;7.55;;;5.93;;
63444;SDS011;49573;47.682;9.170;2023-05-07T07:17:20;7.15;;;5.65;;
63444;SDS011;49573;47.682;9.170;2023-05-07T07:20:07;7.68;;;5.45;;
63444;SDS011;49573;47.682;9.170;2023-05-07T07:22:53;8.57;;;5.78;;
63444;SDS011;49573;47.682;9.170;2023-05-07T07:25:40;10.45;;;5.43;;
63444;SDS011;49573;47.682;9.170;2023-05-07T07:28:26;8.20;;;5.93;;
63444;SDS011;49573;47.682;9.170;2023-05-07T07:31:13;7.40;;;5.43;;
63444;SDS011;49573;47.682;9.170;2023-05-07T07:36:47;7.60;;;6.10;;
63444;SDS011;49573;47.682;9.170;2023-05-07T07:39:33;7.78;;;6.35;;
63444;SDS011;49573;47.682;9.170;2023-05-07T07:42:20;8.18;;;6.32;;
63444;SDS011;49573;47.682;9.170;2023-05-07T07:45:07;8.30;;;6.43;;
63444;SDS011;49573;47.682;9.170;2023-05-07T07:47:53;8.98;;;6.40;;
63444;SDS011;49573;47.682;9.170;2023-05-07T07:50:40;8.48;;;6.07;;
63444;SDS011;49573;47.682;9.170;2023-05-07T07:53:28;6.65;;;5.65;;
63444;SDS011;49573;47.682;9.170;2023-05-07T07:56:14;6.35;;;5.30;;
63444;SDS011;49573;47.682;9.170;2023-05-07T07:59:01;7.32;;;5.55;;
63444;SDS011;49573;47.682;9.170;2023-05-07T08:04:35;8.82;;;6.40;;
63444;SDS011;49573;47.682;9.170;2023-05-07T08:07:22;8.73;;;5.75;;
63444;SDS011;49573;47.682;9.170;2023-05-07T08:10:10;7.03;;;5.05;;
63444;SDS011;49573;47.682;9.170;2023-05-07T08:12:57;12.27;;;5.32;;
63444;SDS011;49573;47.682;9.170;2023-05-07T08:15:43;8.60;;;5.07;;
63444;SDS011;49573;47.682;9.170;2023-05-07T08:18:29;8.68;;;5.47;;
63444;SDS011;49573;47.682;9.170;2023-05-07T08:21:16;8.88;;;5.43;;
63444;SDS011;49573;47.682;9.170;2023-05-07T08:24:02;7.72;;;5.35;;
63444;SDS011;49573;47.682;9.170;2023-05-07T08:26:50;6.55;;;4.97;;
63444;SDS011;49573;47.682;9.170;2023-05-07T08:29:36;10.23;;;5.30;;
63444;SDS011;49573;47.682;9.170;2023-05-07T08:32:23;6.93;;;5.15;;
63444;SDS011;49573;47.682;9.170;2023-05-07T08:35:09;11.77;;;5.28;;
63444;SDS011;49573;47.682;9.170;2023-05-07T08:37:56;8.32;;;5.30;;
63444;SDS011;49573;47.682;9.170;2023-05-07T08:40:42;6.57;;;4.65;;
63444;SDS011;49573;47.682;9.170;2023-05-07T08:43:30;7.72;;;4.65;;
63444;SDS011;49573;47.682;9.170;2023-05-07T08:46:20;8.10;;;4.90;;
63444;SDS011;49573;47.682;9.170;2023-05-07T08:49:07;8.65;;;5.18;;
63444;SDS011;49573;47.682;9.170;2023-05-07T08:51:53;7.60;;;5.22;;
63444;SDS011;49573;47.682;9.170;2023-05-07T08:54:41;5.88;;;4.90;;
63444;SDS011;49573;47.682;9.170;2023-05-07T08:57:27;5.85;;;4.70;;
63444;SDS011;49573;47.682;9.170;2023-05-07T09:00:15;8.75;;;5.18;;
63444;SDS011;49573;47.682;9.170;2023-05-07T09:03:02;9.10;;;5.10;;
63444;SDS011;49573;47.682;9.170;2023-05-07T09:05:48;5.13;;;3.63;;
63444;SDS011;49573;47.682;9.170;2023-05-07T09:08:35;6.18;;;3.35;;
63444;SDS011;49573;47.682;9.170;2023-05-07T09:11:21;4.43;;;3.25;;
63444;SDS011;49573;47.682;9.170;2023-05-07T09:14:08;5.97;;;3.10;;
63444;SDS011;49573;47.682;9.170;2023-05-07T09:16:56;6.85;;;3.53;;
63444;SDS011;49573;47.682;9.170;2023-05-07T09:19:43;5.82;;;3.60;;
63444;SDS011;49573;47.682;9.170;2023-05-07T09:22:31;5.45;;;3.38;;
63444;SDS011;49573;47.682;9.170;2023-05-07T09:25:18;3.92;;;2.90;;
63444;SDS011;49573;47.682;9.170;2023-05-07T09:28:13;4.60;;;3.42;;
63444;SDS011;49573;47.682;9.170;2023-05-07T09:30:59;5.63;;;3.00;;
63444;SDS011;49573;47.682;9.170;2023-05-07T09:33:47;4.20;;;3.13;;
63444;SDS011;49573;47.682;9.170;2023-05-07T09:36:33;4.22;;;2.97;;
63444;SDS011;49573;47.682;9.170;2023-05-07T09:42:07;4.28;;;3.20;;
63444;SDS011;49573;47.682;9.170;2023-05-07T09:44:53;5.70;;;2.97;;
63444;SDS011;49573;47.682;9.170;2023-05-07T09:50:28;5.40;;;2.80;;
63444;SDS011;49573;47.682;9.170;2023-05-07T09:53:15;5.47;;;3.00;;
63444;SDS011;49573;47.682;9.170;2023-05-07T09:56:02;4.15;;;3.28;;
63444;SDS011;49573;47.682;9.170;2023-05-07T09:58:49;5.00;;;2.88;;
63444;SDS011;49573;47.682;9.170;2023-05-07T10:01:36;5.32;;;3.20;;
63444;SDS011;49573;47.682;9.170;2023-05-07T10:04:23;3.53;;;2.88;;
63444;SDS011;49573;47.682;9.170;2023-05-07T10:07:11;4.20;;;3.13;;
63444;SDS011;49573;47.682;9.170;2023-05-07T10:09:58;5.50;;;3.35;;
63444;SDS011;49573;47.682;9.170;2023-05-07T10:12:45;5.00;;;3.50;;
63444;SDS011;49573;47.682;9.170;2023-05-07T10:15:32;5.85;;;3.90;;
63444;SDS011;49573;47.682;9.170;2023-05-07T10:18:20;4.50;;;3.25;;
63444;SDS011;49573;47.682;9.170;2023-05-07T10:21:16;5.65;;;3.03;;
63444;SDS011;49573;47.682;9.170;2023-05-07T10:24:06;5.35;;;3.28;;
63444;SDS011;49573;47.682;9.170;2023-05-07T10:26:59;4.35;;;3.08;;
63444;SDS011;49573;47.682;9.170;2023-05-07T10:29:49;4.03;;;3.00;;
63444;SDS011;49573;47.682;9.170;2023-05-07T10:32:48;4.05;;;3.10;;
63444;SDS011;49573;47.682;9.170;2023-05-07T10:35:37;6.15;;;3.25;;
63444;SDS011;49573;47.682;9.170;2023-05-07T10:38:26;4.60;;;3.33;;
63444;SDS011;49573;47.682;9.170;2023-05-07T10:41:14;5.50;;;3.10;;
63444;SDS011;49573;47.682;9.170;2023-05-07T10:44:02;5.03;;;3.08;;
63444;SDS011;49573;47.682;9.170;2023-05-07T10:46:59;5.60;;;3.33;;
63444;SDS011;49573;47.682;9.170;2023-05-07T10:56:26;6.20;;;3.83;;
63444;SDS011;49573;47.682;9.170;2023-05-07T11:02:19;5.00;;;3.40;;
63444;SDS011;49573;47.682;9.170;2023-05-07T11:05:20;5.43;;;3.28;;
63444;SDS011;49573;47.682;9.170;2023-05-07T11:08:07;5.93;;;3.92;;
63444;SDS011;49573;47.682;9.170;2023-05-07T11:10:54;5.00;;;4.07;;
63444;SDS011;49573;47.682;9.170;2023-05-07T11:13:44;6.32;;;3.78;;
63444;SDS011;49573;47.682;9.170;2023-05-07T11:16:32;4.63;;;3.83;;
63444;SDS011;49573;47.682;9.170;2023-05-07T11:22:36;5.80;;;3.50;;
63444;SDS011;49573;47.682;9.170;2023-05-07T11:25:25;4.50;;;3.55;;
63444;SDS011;49573;47.682;9.170;2023-05-07T11:28:11;5.43;;;3.50;;
63444;SDS011;49573;47.682;9.170;2023-05-07T11:30:59;5.45;;;3.80;;
63444;SDS011;49573;47.682;9.170;2023-05-07T11:33:45;4.65;;;3.10;;
63444;SDS011;49573;47.682;9.170;2023-05-07T11:36:32;4.53;;;3.50;;
63444;SDS011;49573;47.682;9.170;2023-05-07T11:39:28;5.85;;;3.55;;
63444;SDS011;49573;47.682;9.170;2023-05-07T11:45:10;3.70;;;2.97;;
63444;SDS011;49573;47.682;9.170;2023-05-07T11:47:58;6.25;;;4.38;;
63444;SDS011;49573;47.682;9.170;2023-05-07T11:50:50;5.55;;;3.30;;
63444;SDS011;49573;47.682;9.170;2023-05-07T11:53:37;4.90;;;3.60;;
63444;SDS011;49573;47.682;9.170;2023-05-07T11:56:24;5.13;;;3.72;;
63444;SDS011;49573;47.682;9.170;2023-05-07T11:59:10;4.35;;;3.40;;
63444;SDS011;49573;47.682;9.170;2023-05-07T12:01:56;5.05;;;3.58;;
63444;SDS011;49573;47.682;9.170;2023-05-07T12:04:44;5.15;;;3.85;;
63444;SDS011;49573;47.682;9.170;2023-05-07T12:07:32;5.05;;;3.08;;
63444;SDS011;49573;47.682;9.170;2023-05-07T12:10:19;4.85;;;3.40;;
63444;SDS011;49573;47.682;9.170;2023-05-07T12:13:13;6.25;;;3.70;;
63444;SDS011;49573;47.682;9.170;2023-05-07T12:16:00;4.95;;;3.75;;
63444;SDS011;49573;47.682;9.170;2023-05-07T12:18:48;6.68;;;4.18;;
63444;SDS011;49573;47.682;9.170;2023-05-07T12:21:36;5.88;;;4.38;;
63444;SDS011;49573;47.682;9.170;2023-05-07T12:24:23;5.40;;;4.20;;
63444;SDS011;49573;47.682;9.170;2023-05-07T12:27:09;8.65;;;5.70;;
63444;SDS011;49573;47.682;9.170;2023-05-07T12:29:57;6.03;;;4.20;;
63444;SDS011;49573;47.682;9.170;2023-05-07T12:32:44;7.85;;;4.80;;
63444;SDS011;49573;47.682;9.170;2023-05-07T12:35:31;6.63;;;4.28;;
63444;SDS011;49573;47.682;9.170;2023-05-07T12:38:22;6.38;;;4.45;;
63444;SDS011;49573;47.682;9.170;2023-05-07T12:41:08;6.03;;;4.28;;
63444;SDS011;49573;47.682;9.170;2023-05-07T12:43:56;8.68;;;3.97;;
63444;SDS011;49573;47.682;9.170;2023-05-07T12:46:42;6.30;;;4.50;;
63444;SDS011;49573;47.682;9.170;2023-05-07T12:49:29;5.43;;;3.63;;
63444;SDS011;49573;47.682;9.170;2023-05-07T12:52:15;6.65;;;4.00;;
63444;SDS011;49573;47.682;9.170;2023-05-07T12:55:05;5.55;;;3.33;;
63444;SDS011;49573;47.682;9.170;2023-05-07T12:57:52;4.40;;;3.50;;
63444;SDS011;49573;47.682;9.170;2023-05-07T13:00:38;5.13;;;3.58;;
63444;SDS011;49573;47.682;9.170;2023-05-07T13:03:25;6.97;;;3.97;;
63444;SDS011;49573;47.682;9.170;2023-05-07T13:06:12;6.10;;;3.50;;
63444;SDS011;49573;47.682;9.170;2023-05-07T13:08:59;4.55;;;3.40;;
63444;SDS011;49573;47.682;9.170;2023-05-07T13:11:46;4.97;;;3.00;;
63444;SDS011;49573;47.682;9.170;2023-05-07T13:14:32;3.80;;;3.00;;
63444;SDS011;49573;47.682;9.170;2023-05-07T13:20:05;4.47;;;3.35;;
63444;SDS011;49573;47.682;9.170;2023-05-07T13:22:53;6.95;;;3.47;;
63444;SDS011;49573;47.682;9.170;2023-05-07T13:25:39;4.72;;;3.25;;
63444;SDS011;49573;47.682;9.170;2023-05-07T13:28:27;5.30;;;3.22;;
63444;SDS011;49573;47.682;9.170;2023-05-07T13:31:13;4.90;;;2.95;;
63444;SDS011;49573;47.682;9.170;2023-05-07T13:33:59;5.13;;;3.13;;
63444;SDS011;49573;47.682;9.170;2023-05-07T13:36:45;5.05;;;3.30;;
63444;SDS011;49573;47.682;9.170;2023-05-07T13:39:32;4.78;;;3.20;;
63444;SDS011;49573;47.682;9.170;2023-05-07T13:42:18;5.30;;;3.42;;
63444;SDS011;49573;47.682;9.170;2023-05-07T13:45:06;3.95;;;2.70;;
63444;SDS011;49573;47.682;9.170;2023-05-07T13:47:53;3.63;;;2.80;;
63444;SDS011;49573;47.682;9.170;2023-05-07T13:50:39;4.57;;;3.10;;
63444;SDS011;49573;47.682;9.170;2023-05-07T13:53:25;5.10;;;2.75;;
63444;SDS011;49573;47.682;9.170;2023-05-07T13:56:11;4.15;;;2.90;;
63444;SDS011;49573;47.682;9.170;2023-05-07T13:58:57;4.78;;;3.17;;
63444;SDS011;49573;47.682;9.170;2023-05-07T14:01:44;5.70;;;3.55;;
63444;SDS011;49573;47.682;9.170;2023-05-07T14:04:31;5.57;;;3.40;;
63444;SDS011;49573;47.682;9.170;2023-05-07T14:07:18;5.90;;;3.40;;
63444;SDS011;49573;47.682;9.170;2023-05-07T14:10:05;6.07;;;4.20;;
63444;SDS011;49573;47.682;9.170;2023-05-07T14:12:51;6.85;;;3.25;;
63444;SDS011;49573;47.682;9.170;2023-05-07T14:18:25;7.72;;;3.15;;
63444;SDS011;49573;47.682;9.170;2023-05-07T14:21:11;4.53;;;3.08;;
63444;SDS011;49573;47.682;9.170;2023-05-07T14:23:57;4.88;;;2.60;;
63444;SDS011;49573;47.682;9.170;2023-05-07T14:26:43;3.45;;;2.15;;
63444;SDS011;49573;47.682;9.170;2023-05-07T14:29:30;3.60;;;2.67;;
63444;SDS011;49573;47.682;9.170;2023-05-07T14:32:16;3.17;;;2.20;;
63444;SDS011;49573;47.682;9.170;2023-05-07T14:35:05;4.10;;;2.40;;
63444;SDS011;49573;47.682;9.170;2023-05-07T14:37:51;3.38;;;2.22;;
63444;SDS011;49573;47.682;9.170;2023-05-07T14:40:37;2.90;;;2.40;;
63444;SDS011;49573;47.682;9.170;2023-05-07T14:43:23;4.32;;;2.25;;
63444;SDS011;49573;47.682;9.170;2023-05-07T14:46:09;3.55;;;2.25;;
63444;SDS011;49573;47.682;9.170;2023-05-07T14:48:56;3.88;;;2.10;;
63444;SDS011;49573;47.682;9.170;2023-05-07T14:51:43;2.65;;;1.85;;
63444;SDS011;49573;47.682;9.170;2023-05-07T14:54:30;3.80;;;2.20;;
63444;SDS011;49573;47.682;9.170;2023-05-07T14:57:18;2.30;;;1.95;;
63444;SDS011;49573;47.682;9.170;2023-05-07T15:00:05;2.65;;;2.00;;
63444;SDS011;49573;47.682;9.170;2023-05-07T15:02:52;3.85;;;2.28;;
63444;SDS011;49573;47.682;9.170;2023-05-07T15:05:38;4.63;;;2.00;;
63444;SDS011;49573;47.682;9.170;2023-05-07T15:08:26;3.55;;;2.05;;
63444;SDS011;49573;47.682;9.170;2023-05-07T15:11:12;3.03;;;1.95;;
63444;SDS011;49573;47.682;9.170;2023-05-07T15:13:58;2.00;;;1.70;;
63444;SDS011;49573;47.682;9.170;2023-05-07T15:16:44;3.58;;;1.75;;
63444;SDS011;49573;47.682;9.170;2023-05-07T15:19:30;2.03;;;1.70;;
63444;SDS011;49573;47.682;9.170;2023-05-07T15:22:16;2.97;;;2.10;;
63444;SDS011;49573;47.682;9.170;2023-05-07T15:25:04;2.03;;;1.77;;
63444;SDS011;49573;47.682;9.170;2023-05-07T15:27:51;2.65;;;1.83;;
63444;SDS011;49573;47.682;9.170;2023-05-07T15:30:37;3.25;;;1.70;;
63444;SDS011;49573;47.682;9.170;2023-05-07T15:33:23;2.90;;;2.10;;
63444;SDS011;49573;47.682;9.170;2023-05-07T15:36:09;2.85;;;2.08;;
63444;SDS011;49573;47.682;9.170;2023-05-07T15:38:55;3.17;;;1.98;;
63444;SDS011;49573;47.682;9.170;2023-05-07T15:41:43;3.10;;;2.15;;
63444;SDS011;49573;47.682;9.170;2023-05-07T15:44:29;4.35;;;2.10;;
63444;SDS011;49573;47.682;9.170;2023-05-07T15:47:17;3.50;;;2.28;;
63444;SDS011;49573;47.682;9.170;2023-05-07T15:50:03;2.55;;;2.30;;
63444;SDS011;49573;47.682;9.170;2023-05-07T15:52:50;4.85;;;2.67;;
63444;SDS011;49573;47.682;9.170;2023-05-07T15:55:36;4.95;;;2.70;;
63444;SDS011;49573;47.682;9.170;2023-05-07T15:58:23;3.50;;;2.50;;
63444;SDS011;49573;47.682;9.170;2023-05-07T16:01:11;4.43;;;2.35;;
63444;SDS011;49573;47.682;9.170;2023-05-07T16:03:57;3.63;;;2.30;;
63444;SDS011;49573;47.682;9.170;2023-05-07T16:06:43;4.28;;;2.28;;
63444;SDS011;49573;47.682;9.170;2023-05-07T16:09:31;3.45;;;2.30;;
63444;SDS011;49573;47.682;9.170;2023-05-07T16:12:17;4.10;;;2.53;;
63444;SDS011;49573;47.682;9.170;2023-05-07T16:15:05;3.13;;;2.25;;
63444;SDS011;49573;47.682;9.170;2023-05-07T16:17:52;2.97;;;2.22;;
63444;SDS011;49573;47.682;9.170;2023-05-07T16:20:42;3.70;;;2.30;;
63444;SDS011;49573;47.682;9.170;2023-05-07T16:23:28;4.80;;;2.20;;
63444;SDS011;49573;47.682;9.170;2023-05-07T16:26:14;3.25;;;2.30;;
63444;SDS011;49573;47.682;9.170;2023-05-07T16:29:00;3.17;;;2.30;;
63444;SDS011;49573;47.682;9.170;2023-05-07T16:31:47;3.45;;;2.47;;
63444;SDS011;49573;47.682;9.170;2023-05-07T16:34:33;2.95;;;2.20;;
63444;SDS011;49573;47.682;9.170;2023-05-07T16:37:19;3.15;;;2.50;;
63444;SDS011;49573;47.682;9.170;2023-05-07T16:40:06;3.10;;;2.30;;
63444;SDS011;49573;47.682;9.170;2023-05-07T16:42:53;3.72;;;2.42;;
63444;SDS011;49573;47.682;9.170;2023-05-07T16:45:39;5.00;;;2.83;;
63444;SDS011;49573;47.682;9.170;2023-05-07T16:48:26;3.17;;;2.33;;
63444;SDS011;49573;47.682;9.170;2023-05-07T16:51:12;3.38;;;2.33;;
63444;SDS011;49573;47.682;9.170;2023-05-07T16:53:58;6.13;;;2.58;;
63444;SDS011;49573;47.682;9.170;2023-05-07T16:56:44;3.80;;;2.53;;
63444;SDS011;49573;47.682;9.170;2023-05-07T16:59:30;3.75;;;2.80;;
63444;SDS011;49573;47.682;9.170;2023-05-07T17:02:18;2.88;;;2.45;;
63444;SDS011;49573;47.682;9.170;2023-05-07T17:05:06;4.80;;;2.60;;
63444;SDS011;49573;47.682;9.170;2023-05-07T17:07:52;4.10;;;2.30;;
63444;SDS011;49573;47.682;9.170;2023-05-07T17:10:39;5.13;;;2.80;;
63444;SDS011;49573;47.682;9.170;2023-05-07T17:13:26;3.30;;;2.22;;
63444;SDS011;49573;47.682;9.170;2023-05-07T17:16:12;3.75;;;2.70;;
63444;SDS011;49573;47.682;9.170;2023-05-07T17:18:58;4.13;;;2.45;;
63444;SDS011;49573;47.682;9.170;2023-05-07T17:21:46;3.13;;;2.30;;
63444;SDS011;49573;47.682;9.170;2023-05-07T17:24:32;5.05;;;2.80;;
63444;SDS011;49573;47.682;9.170;2023-05-07T17:27:18;9.38;;;5.93;;
63444;SDS011;49573;47.682;9.170;2023-05-07T17:30:06;5.38;;;3.40;;
63444;SDS011;49573;47.682;9.170;2023-05-07T17:32:53;11.80;;;9.05;;